createdAt,value
2022-11-21T00:01:34.436Z,26.45
2022-11-21T00:04:36.598Z,24.23
2022-11-21T00:07:38.880Z,26.08
2022-11-21T00:10:41.810Z,26.95
2022-11-21T00:13:44.303Z,25.63
2022-11-21T00:16:46.838Z,26.83
2022-11-21T00:19:49.017Z,27.20
2022-11-21T00:22:51.206Z,29.38
2022-11-21T00:25:53.387Z,27.52
2022-11-21T00:28:55.544Z,26.65
2022-11-21T00:31:57.770Z,25.85
2022-11-21T00:35:00.037Z,25.83
2022-11-21T00:38:02.187Z,26.30
2022-11-21T00:41:05.090Z,26.25
2022-11-21T00:44:07.296Z,24.77
2022-11-21T00:47:09.579Z,25.98
2022-11-21T00:50:11.886Z,27.73
2022-11-21T00:53:14.099Z,24.25
2022-11-21T00:56:17.032Z,23.30
2022-11-21T00:59:19.243Z,22.73
2022-11-21T01:02:21.488Z,24.60
2022-11-21T01:05:23.663Z,25.67
2022-11-21T01:08:25.959Z,24.45
2022-11-21T01:11:29.423Z,22.90
2022-11-21T01:14:31.695Z,25.80
2022-11-21T01:17:34.182Z,23.75
2022-11-21T01:20:40.548Z,23.33
2022-11-21T01:23:43.379Z,24.90
2022-11-21T01:26:45.531Z,25.60
2022-11-21T01:29:47.692Z,24.88
2022-11-21T01:32:50.298Z,23.52
2022-11-21T01:35:52.532Z,24.88
2022-11-21T01:38:57.194Z,20.77
2022-11-21T01:41:59.487Z,23.02
2022-11-21T01:45:01.840Z,22.48
2022-11-21T01:48:04.340Z,21.45
2022-11-21T01:51:32.671Z,25.65
2022-11-21T01:54:41.838Z,24.48
2022-11-21T01:57:49.123Z,24.67
2022-11-21T02:00:51.622Z,24.42
2022-11-21T02:03:56.212Z,21.88
2022-11-21T02:07:06.406Z,22.70
2022-11-21T02:10:10.499Z,23.10
2022-11-21T02:13:12.924Z,23.88
2022-11-21T02:16:15.151Z,22.50
2022-11-21T02:19:42.068Z,23.23
2022-11-21T02:23:02.977Z,23.23
2022-11-21T02:26:05.498Z,23.50
2022-11-21T02:29:08.061Z,23.40
2022-11-21T02:32:22.292Z,21.20
2022-11-21T02:35:24.831Z,21.23
2022-11-21T02:38:36.642Z,22.75
2022-11-21T02:41:49.897Z,20.42
2022-11-21T02:45:18.871Z,20.80
2022-11-21T02:48:21.037Z,22.63
2022-11-21T02:51:23.348Z,21.27
2022-11-21T02:54:25.764Z,21.98
2022-11-21T02:57:28.176Z,21.25
2022-11-21T03:00:30.705Z,21.58
2022-11-21T03:03:32.847Z,21.17
2022-11-21T03:06:35.050Z,23.23
2022-11-21T03:09:37.322Z,22.40
2022-11-21T03:12:40.941Z,21.42
2022-11-21T03:15:43.120Z,21.15
2022-11-21T03:18:45.584Z,20.00
2022-11-21T03:21:47.814Z,18.50
2022-11-21T03:24:49.981Z,20.80
2022-11-21T03:27:53.861Z,20.50
2022-11-21T03:30:56.000Z,21.23
2022-11-21T03:33:58.212Z,21.23
2022-11-21T03:37:00.471Z,23.17
2022-11-21T03:40:02.825Z,19.42
2022-11-21T03:43:06.359Z,20.90
2022-11-21T03:46:08.569Z,19.27
2022-11-21T03:49:11.389Z,20.63
2022-11-21T03:52:13.544Z,21.77
2022-11-21T03:55:15.800Z,23.55
2022-11-21T03:58:17.911Z,22.08
2022-11-21T04:01:20.439Z,22.42
2022-11-21T04:04:22.748Z,22.45
2022-11-21T04:07:25.075Z,21.10
2022-11-21T04:10:27.403Z,22.00
2022-11-21T04:13:29.910Z,21.50
2022-11-21T04:16:32.329Z,21.17
2022-11-21T04:19:34.473Z,22.42
2022-11-21T04:22:36.605Z,22.10
2022-11-21T04:25:38.898Z,26.38
2022-11-21T04:28:41.379Z,23.63
2022-11-21T04:31:43.605Z,24.95
2022-11-21T04:34:45.996Z,19.58
2022-11-21T04:37:48.289Z,23.55
2022-11-21T04:40:50.470Z,21.60
2022-11-21T04:43:53.076Z,17.90
2022-11-21T04:46:55.467Z,19.23
2022-11-21T04:49:57.773Z,22.67
2022-11-21T04:53:01.039Z,23.30
2022-11-21T04:56:06.589Z,20.50
2022-11-21T04:59:12.121Z,24.00
2022-11-21T05:02:14.274Z,23.73
2022-11-21T05:05:16.676Z,21.17
2022-11-21T05:08:18.786Z,24.58
2022-11-21T05:11:39.468Z,22.40
2022-11-21T05:14:41.587Z,22.38
2022-11-21T05:17:43.836Z,21.92
2022-11-21T05:20:45.995Z,24.20
2022-11-21T05:23:48.198Z,25.33
2022-11-21T05:26:50.426Z,24.17
2022-11-21T05:29:53.588Z,26.13
2022-11-21T05:32:55.749Z,23.65
2022-11-21T05:35:58.050Z,22.48
2022-11-21T05:39:00.311Z,23.40
2022-11-21T05:42:03.395Z,24.42
2022-11-21T05:45:06.420Z,20.50
2022-11-21T05:48:08.637Z,22.55
2022-11-21T05:51:11.366Z,24.45
2022-11-21T05:54:14.998Z,25.30
2022-11-21T05:57:17.197Z,24.38
2022-11-21T06:00:19.616Z,24.70
2022-11-21T06:03:27.716Z,23.85
2022-11-21T06:06:30.132Z,25.45
2022-11-21T06:09:32.257Z,25.05
2022-11-21T06:12:36.098Z,25.08
2022-11-21T06:15:38.341Z,25.50
2022-11-21T06:18:43.012Z,26.40
2022-11-21T06:21:45.192Z,23.77
2022-11-21T06:24:47.651Z,25.85
2022-11-21T06:27:49.978Z,25.85
2022-11-21T06:30:52.312Z,26.23
2022-11-21T06:33:59.305Z,24.90
2022-11-21T06:37:01.525Z,21.80
2022-11-21T06:40:04.066Z,26.48
2022-11-21T06:43:06.285Z,25.58
2022-11-21T06:46:09.131Z,27.83
2022-11-21T06:49:11.569Z,25.67
2022-11-21T06:52:13.851Z,23.02
2022-11-21T06:55:16.198Z,24.80
2022-11-21T06:58:18.496Z,25.63
2022-11-21T07:01:20.819Z,28.27
2022-11-21T07:04:23.085Z,23.33
2022-11-21T07:07:25.470Z,26.42
2022-11-21T07:10:28.885Z,22.80
2022-11-21T07:13:32.574Z,24.38
2022-11-21T07:16:34.978Z,25.73
2022-11-21T07:19:40.737Z,24.15
2022-11-21T07:22:43.233Z,20.60
2022-11-21T07:25:45.440Z,23.02
2022-11-21T07:28:47.595Z,24.88
2022-11-21T07:31:49.934Z,24.95
2022-11-21T07:34:52.141Z,22.25
2022-11-21T07:37:54.621Z,25.30
2022-11-21T07:40:57.025Z,28.58
2022-11-21T07:43:59.194Z,21.65
2022-11-21T07:47:01.435Z,23.80
2022-11-21T07:50:04.945Z,25.25
2022-11-21T07:53:10.869Z,26.80
2022-11-21T07:56:13.213Z,23.17
2022-11-21T07:59:15.407Z,23.05
2022-11-21T08:02:22.932Z,21.63
2022-11-21T08:05:25.629Z,21.17
2022-11-21T08:08:27.849Z,19.25
2022-11-21T08:11:31.148Z,19.85
2022-11-21T08:14:37.034Z,17.98
2022-11-21T08:17:39.329Z,18.33
2022-11-21T08:20:42.078Z,15.13
2022-11-21T08:23:44.383Z,17.27
2022-11-21T08:26:47.208Z,17.33
2022-11-21T08:29:49.478Z,15.40
2022-11-21T08:32:51.852Z,15.73
2022-11-21T08:35:53.978Z,15.43
2022-11-21T08:38:56.120Z,16.83
2022-11-21T08:42:04.508Z,16.92
2022-11-21T08:45:07.277Z,19.27
2022-11-21T08:48:12.505Z,16.67
2022-11-21T08:51:14.858Z,15.55
2022-11-21T08:54:18.252Z,16.80
2022-11-21T08:57:20.411Z,17.10
2022-11-21T09:00:23.260Z,18.42
2022-11-21T09:03:30.660Z,16.33
2022-11-21T09:06:33.697Z,16.05
2022-11-21T09:09:35.817Z,16.75
2022-11-21T09:12:37.963Z,16.90
2022-11-21T09:15:58.866Z,16.13
2022-11-21T09:19:01.026Z,15.40
2022-11-21T09:22:03.181Z,16.80
2022-11-21T09:25:05.893Z,17.63
2022-11-21T09:28:10.392Z,16.02
2022-11-21T09:31:12.745Z,16.63
2022-11-21T09:34:15.075Z,18.98
2022-11-21T09:37:17.359Z,15.48
2022-11-21T09:40:19.939Z,17.27
2022-11-21T09:43:55.804Z,15.30
2022-11-21T09:47:16.129Z,14.77
2022-11-21T09:50:49.334Z,16.67
2022-11-21T09:54:03.843Z,16.02
2022-11-21T09:57:06.017Z,17.25
2022-11-21T10:00:21.016Z,16.02
2022-11-21T10:03:27.266Z,17.77
2022-11-21T10:06:39.032Z,17.95
2022-11-21T10:09:48.232Z,17.15
2022-11-21T10:13:38.222Z,16.85
2022-11-21T10:16:49.158Z,17.42
2022-11-21T10:20:15.995Z,16.60
2022-11-21T10:23:36.917Z,20.88
2022-11-21T10:26:44.728Z,20.38
2022-11-21T10:30:17.067Z,18.23
2022-11-21T10:33:30.591Z,18.67
2022-11-21T10:36:42.029Z,20.25
2022-11-21T10:39:50.676Z,18.98
2022-11-21T10:43:38.282Z,19.08
2022-11-21T10:46:40.581Z,20.38
2022-11-21T10:49:43.819Z,21.48
2022-11-21T10:52:51.357Z,20.52
2022-11-21T10:56:05.070Z,21.33
2022-11-21T10:59:22.572Z,20.90
2022-11-21T11:02:27.669Z,22.50
2022-11-21T11:05:53.604Z,22.20
2022-11-21T11:08:55.787Z,21.95
2022-11-21T11:12:24.449Z,22.10
2022-11-21T11:15:27.611Z,23.25
2022-11-21T11:18:36.003Z,22.50
2022-11-21T11:21:41.235Z,21.42
2022-11-21T11:24:57.466Z,21.10
2022-11-21T11:28:09.296Z,23.70
2022-11-21T11:31:12.220Z,22.02
2022-11-21T11:34:15.410Z,22.60
2022-11-21T11:37:40.698Z,24.10
2022-11-21T11:40:45.571Z,24.08
2022-11-21T11:44:14.757Z,21.45
2022-11-21T11:47:30.671Z,23.92
2022-11-21T11:50:41.726Z,22.45
2022-11-21T11:53:51.815Z,22.55
2022-11-21T11:56:55.343Z,23.08
2022-11-21T12:00:25.667Z,22.65
2022-11-21T12:04:10.981Z,24.27
2022-11-21T12:08:12.745Z,19.88
2022-11-21T12:11:14.973Z,25.20
2022-11-21T12:14:55.016Z,24.48
2022-11-21T12:18:15.594Z,25.08
2022-11-21T12:21:18.887Z,24.02
2022-11-21T12:24:22.484Z,23.75
2022-11-21T12:27:34.365Z,24.55
2022-11-21T12:31:00.183Z,24.33
2022-11-21T12:34:22.215Z,22.08
2022-11-21T12:37:33.611Z,21.98
2022-11-21T12:40:56.954Z,25.85
2022-11-21T12:44:23.376Z,24.00
2022-11-21T12:48:30.881Z,22.67
2022-11-21T12:52:17.827Z,25.85
2022-11-21T12:55:55.391Z,23.38
2022-11-21T12:58:58.415Z,23.20
2022-11-21T13:02:32.629Z,25.73
2022-11-21T13:05:41.422Z,24.77
2022-11-21T13:08:45.523Z,26.35
2022-11-21T13:12:00.921Z,27.85
2022-11-21T13:15:18.975Z,24.95
2022-11-21T13:18:28.794Z,28.58
2022-11-21T13:21:52.617Z,26.48
2022-11-21T13:24:56.645Z,25.70
2022-11-21T13:28:13.782Z,27.63
2022-11-21T13:31:35.438Z,23.75
2022-11-21T13:34:42.024Z,26.38
2022-11-21T13:37:49.941Z,29.45
2022-11-21T13:41:10.899Z,28.70
2022-11-21T13:44:31.196Z,25.25
2022-11-21T13:51:07.447Z,26.08
2022-11-21T13:54:09.772Z,29.95
2022-11-21T13:57:33.550Z,34.25
2022-11-21T14:01:06.679Z,30.88
2022-11-21T14:04:41.236Z,29.35
2022-11-21T14:07:44.794Z,30.48
2022-11-21T14:10:48.829Z,30.98
2022-11-21T14:13:51.207Z,30.58
2022-11-21T14:17:13.602Z,30.75
2022-11-21T14:20:17.974Z,31.23
2022-11-21T14:23:22.796Z,30.20
2022-11-21T14:26:25.793Z,33.70
2022-11-21T14:29:41.646Z,30.50
2022-11-21T14:32:47.237Z,28.20
2022-11-21T14:35:54.429Z,32.30
2022-11-21T14:39:35.937Z,30.38
2022-11-21T14:42:22.727Z,27.85
2022-11-21T14:45:25.469Z,34.95
2022-11-21T14:48:31.484Z,30.42
2022-11-21T14:51:36.210Z,30.85
2022-11-21T14:55:28.673Z,29.48
2022-11-21T14:58:22.680Z,30.42
2022-11-21T15:01:30.372Z,33.42
2022-11-21T15:04:36.226Z,30.13
2022-11-21T15:07:45.531Z,33.30
2022-11-21T15:10:48.083Z,31.58
2022-11-21T15:17:22.556Z,33.03
2022-11-21T15:20:26.356Z,30.88
2022-11-21T15:23:33.034Z,30.38
2022-11-21T15:26:40.807Z,31.88
2022-11-21T15:29:43.045Z,31.08
2022-11-21T15:33:04.554Z,30.50
2022-11-21T15:36:13.825Z,33.70
2022-11-21T15:39:22.399Z,31.03
2022-11-21T15:42:42.918Z,28.58
2022-11-21T15:48:54.425Z,31.95
2022-11-21T15:52:06.952Z,34.93
2022-11-21T15:55:17.114Z,35.35
2022-11-21T15:58:19.369Z,39.28
2022-11-21T16:01:27.682Z,36.78
2022-11-21T16:04:29.954Z,36.72
2022-11-21T16:07:32.197Z,36.63
2022-11-21T16:10:36.224Z,40.35
2022-11-21T16:13:38.711Z,35.97
2022-11-21T16:16:43.445Z,38.83
2022-11-21T16:19:46.109Z,42.22
2022-11-21T16:22:49.918Z,38.83
2022-11-21T16:25:55.545Z,37.63
2022-11-21T16:28:58.544Z,42.42
2022-11-21T16:32:03.964Z,41.50
2022-11-21T16:35:06.999Z,40.25
2022-11-21T16:38:10.448Z,42.35
2022-11-21T16:41:12.866Z,46.15
2022-11-21T16:44:16.874Z,42.78
2022-11-21T16:47:19.127Z,45.13
2022-11-21T16:50:22.644Z,45.55
2022-11-21T16:53:25.799Z,46.88
2022-11-21T16:56:28.313Z,46.22
2022-11-21T16:59:31.821Z,50.03
2022-11-21T17:02:34.258Z,43.25
2022-11-21T17:05:36.477Z,46.95
2022-11-21T17:08:38.780Z,44.78
2022-11-21T17:11:41.128Z,46.92
2022-11-21T17:14:43.353Z,47.08
2022-11-21T17:17:45.708Z,46.72
2022-11-21T17:20:47.979Z,46.17
2022-11-21T17:23:50.643Z,49.28
2022-11-21T17:26:52.835Z,47.72
2022-11-21T17:29:54.977Z,45.85
2022-11-21T17:32:57.205Z,41.05
2022-11-21T17:36:01.689Z,42.58
2022-11-21T17:39:03.986Z,45.25
2022-11-21T17:42:06.207Z,43.22
2022-11-21T17:45:09.145Z,38.58
2022-11-21T17:48:11.311Z,37.33
2022-11-21T17:51:16.223Z,41.55
2022-11-21T17:54:18.867Z,45.40
2022-11-21T17:57:21.017Z,39.00
2022-11-21T18:00:23.184Z,43.90
2022-11-21T18:03:26.709Z,40.03
2022-11-21T18:06:32.934Z,41.78
2022-11-21T18:09:35.127Z,42.67
2022-11-21T18:12:37.391Z,44.08
2022-11-21T18:15:39.608Z,39.60
2022-11-21T18:18:42.254Z,39.00
2022-11-21T18:21:44.500Z,38.92
2022-11-21T18:24:47.101Z,38.20
2022-11-21T18:27:54.478Z,37.13
2022-11-21T18:31:07.794Z,37.67
2022-11-21T18:34:10.523Z,33.75
2022-11-21T18:37:12.733Z,31.55
2022-11-21T18:40:14.942Z,36.58
2022-11-21T18:43:17.168Z,34.35
2022-11-21T18:46:20.367Z,35.78
2022-11-21T18:49:22.546Z,33.72
2022-11-21T18:52:24.952Z,32.35
2022-11-21T18:55:28.346Z,32.22
2022-11-21T18:58:33.823Z,32.67
2022-11-21T19:01:39.476Z,30.90
2022-11-21T19:04:41.859Z,31.92
2022-11-21T19:07:44.022Z,31.10
2022-11-21T19:10:46.255Z,26.63
2022-11-21T19:13:49.036Z,29.73
2022-11-21T19:16:51.189Z,28.52
2022-11-21T19:19:53.380Z,29.77
2022-11-21T19:22:55.517Z,29.98
2022-11-21T19:26:02.224Z,30.02
2022-11-21T19:29:04.461Z,30.33
2022-11-21T19:32:06.640Z,30.85
2022-11-21T19:35:09.589Z,30.58
2022-11-21T19:38:11.758Z,30.42
2022-11-21T19:41:20.071Z,29.52
2022-11-21T19:44:22.240Z,30.45
2022-11-21T19:47:24.827Z,30.92
2022-11-21T19:50:27.095Z,30.13
2022-11-21T19:53:33.758Z,28.17
2022-11-21T19:56:36.228Z,27.52
2022-11-21T19:59:46.269Z,29.08
2022-11-21T20:02:48.910Z,29.45
2022-11-21T20:05:52.142Z,27.77
2022-11-21T20:09:03.654Z,28.95
2022-11-21T20:12:06.084Z,25.00
2022-11-21T20:15:09.003Z,27.38
2022-11-21T20:18:12.683Z,30.70
2022-11-21T20:21:16.542Z,28.38
2022-11-21T20:24:18.661Z,28.85
2022-11-21T20:27:20.811Z,27.92
2022-11-21T20:30:25.126Z,24.90
2022-11-21T20:33:27.351Z,28.02
2022-11-21T20:36:31.637Z,26.17
2022-11-21T20:39:33.838Z,27.27
2022-11-21T20:42:37.525Z,25.95
2022-11-21T20:49:01.879Z,27.02
2022-11-21T20:55:26.363Z,28.00
2022-11-21T20:58:30.391Z,28.85
2022-11-21T21:01:32.653Z,25.98
2022-11-21T21:04:34.885Z,24.75
2022-11-21T21:07:37.098Z,26.38
2022-11-21T21:11:04.528Z,24.85
2022-11-21T21:14:01.665Z,26.25
2022-11-21T21:17:04.025Z,26.55
2022-11-21T21:20:07.158Z,27.48
2022-11-21T21:23:09.483Z,24.23
2022-11-21T21:26:13.453Z,28.67
2022-11-21T21:29:19.360Z,23.92
2022-11-21T21:32:21.507Z,28.15
2022-11-21T21:35:23.751Z,25.08
2022-11-21T21:38:26.078Z,25.60
2022-11-21T21:41:30.043Z,26.83
2022-11-21T21:44:33.641Z,27.10
2022-11-21T21:47:36.476Z,27.13
2022-11-21T21:50:38.597Z,25.35
2022-11-21T21:53:41.418Z,28.17
2022-11-21T21:56:43.777Z,23.00
2022-11-21T21:59:45.914Z,28.63
2022-11-21T22:02:48.089Z,24.60
2022-11-21T22:05:50.279Z,24.50
2022-11-21T22:08:53.791Z,24.80
2022-11-21T22:11:55.947Z,24.85
2022-11-21T22:14:58.206Z,24.55
2022-11-21T22:18:00.418Z,27.38
2022-11-21T22:21:13.421Z,23.33
2022-11-21T22:24:25.299Z,24.55
2022-11-21T22:27:28.348Z,27.77
2022-11-21T22:30:30.490Z,22.67
2022-11-21T22:33:33.288Z,24.77
2022-11-21T22:36:35.532Z,23.05
2022-11-21T22:39:37.732Z,24.45
2022-11-21T22:42:39.860Z,21.30
2022-11-21T22:45:42.122Z,23.60
2022-11-21T22:48:44.361Z,23.55
2022-11-21T22:51:46.582Z,23.30
2022-11-21T22:54:48.754Z,21.73
2022-11-21T22:57:51.031Z,20.10
2022-11-21T23:01:02.937Z,22.23
2022-11-21T23:04:05.217Z,26.10
2022-11-21T23:07:08.028Z,21.55
2022-11-21T23:10:11.035Z,22.83
2022-11-21T23:13:13.152Z,19.33
2022-11-21T23:16:16.120Z,22.27
2022-11-21T23:19:18.717Z,21.75
2022-11-21T23:22:21.143Z,24.77
2022-11-21T23:25:23.362Z,28.85
2022-11-21T23:28:25.988Z,24.67
2022-11-21T23:31:28.258Z,21.92
2022-11-21T23:34:30.453Z,23.13
2022-11-21T23:37:32.762Z,25.02
2022-11-21T23:40:34.977Z,26.33
2022-11-21T23:43:37.274Z,24.10
2022-11-21T23:46:39.532Z,23.67
2022-11-21T23:49:44.765Z,29.00
2022-11-21T23:52:51.103Z,24.30
2022-11-21T23:55:53.330Z,26.13
2022-11-21T23:58:55.524Z,25.10
